Time;durP1;ratioP1;P1;durP2;ratioP2;P2;SDS_P1;SDS_P2;PMS_P1;PMS_P2;Temp;Humidity;BMP_temperature;BMP_pressure;BME280_temperature;BME280_humidity;BME280_pressure;Samples;Min_cycle;Max_cycle;Signal;HPM_P1;HPM_P2
2023/03/22 00:01:05;;;;;;;35.00;24.10;;;;;;;8.92;87.12;100330.31;105407;1253;69194;-65
2023/03/22 00:03:52;;;;;;;35.10;23.70;;;;;;;8.93;86.97;100327.16;105428;1253;72338;-68
2023/03/22 00:06:40;;;;;;;37.70;23.80;;;;;;;8.92;86.97;100326.84;105416;1257;83387;-67
2023/03/22 00:09:30;;;;;;;;;;;;;;;;;;;;;
2023/03/22 00:12:24;;;;;;;32.10;22.20;;;;;;;8.90;87.13;100323.60;105400;1256;69214;-64
2023/03/22 00:15:21;;;;;;;32.70;23.40;;;;;;;8.90;87.45;100318.70;105425;1253;69174;-64
2023/03/22 00:18:20;;;;;;;35.60;24.50;;;;;;;8.90;87.63;100317.83;105437;1257;74083;-65
2023/03/22 00:21:16;;;;;;;43.20;26.10;;;;;;;8.90;87.53;100317.31;105389;1254;82388;-67
2023/03/22 00:23:54;;;;;;;38.50;25.80;;;;;;;8.87;87.53;100308.02;105414;1254;73268;-66
2023/03/22 00:26:59;;;;;;;38.20;23.30;;;;;;;8.85;87.74;100305.98;105357;1253;69215;-65
2023/03/22 00:29:52;;;;;;;33.90;23.20;;;;;;;8.87;87.79;100313.77;105389;1257;69186;-66
2023/03/22 00:32:41;;;;;;;31.80;20.70;;;;;;;8.85;87.71;100293.23;105431;1255;73997;-65
2023/03/22 00:35:28;;;;;;;28.80;20.30;;;;;;;8.87;88.04;100306.42;105356;1257;83730;-67
2023/03/22 00:38:22;;;;;;;30.90;19.90;;;;;;;8.89;88.14;100304.27;105302;1256;73917;-66
2023/03/22 00:41:36;;;;;;;30.50;20.70;;;;;;;8.90;88.23;100294.31;105331;1257;69123;-65
2023/03/22 00:44:18;;;;;;;31.70;20.80;;;;;;;8.91;88.35;100302.13;105474;1256;69190;-64
2023/03/22 00:47:03;;;;;;;30.90;21.10;;;;;;;8.89;88.37;100280.04;105446;1253;73943;-67
2023/03/22 00:50:05;;;;;;;30.00;21.60;;;;;;;8.87;88.55;100288.82;105439;1257;83417;-66
2023/03/22 00:53:08;;;;;;;;;;;;;;;;;;;;;
2023/03/22 00:55:59;;;;;;;32.60;21.20;;;;;;;8.90;88.76;100273.59;105432;1254;69095;-66
2023/03/22 00:58:52;;;;;;;32.40;21.80;;;;;;;8.90;88.69;100277.23;105444;1257;69141;-67
2023/03/22 01:01:54;;;;;;;46.60;28.30;;;;;;;8.91;88.52;100277.02;105450;1253;74072;-64
2023/03/22 01:04:54;;;;;;;44.50;26.00;;;;;;;8.90;88.65;100273.40;105432;1257;83510;-66
2023/03/22 01:07:57;;;;;;;36.70;23.80;;;;;;;8.90;88.87;100269.92;105455;1253;72549;-67
2023/03/22 01:10:41;;;;;;;32.00;22.30;;;;;;;8.89;88.97;100275.16;105403;1256;69213;-65
2023/03/22 01:13:21;;;;;;;32.30;22.70;;;;;;;8.89;89.09;100260.36;105472;1257;69524;-67
2023/03/22 01:16:15;;;;;;;33.70;21.30;;;;;;;8.91;88.90;100268.48;105262;1253;72950;-67
2023/03/22 01:19:26;;;;;;;30.50;20.60;;;;;;;8.92;88.80;100258.17;105367;1257;83599;-67
2023/03/22 01:22:16;;;;;;;31.90;21.00;;;;;;;8.93;89.07;100268.05;105415;1257;73289;-71
2023/03/22 01:25:11;;;;;;;29.80;20.10;;;;;;;8.96;88.95;100265.55;105450;1253;69192;-73
2023/03/22 01:28:03;;;;;;;32.80;22.60;;;;;;;8.96;89.05;100260.14;105421;1257;69024;-67
2023/03/22 01:30:57;;;;;;;86.60;37.50;;;;;;;8.93;89.16;100249.59;105451;1257;73120;-70
2023/03/22 01:33:51;;;;;;;35.20;24.30;;;;;;;8.92;89.35;100251.20;105389;1257;83432;-67
2023/03/22 01:36:49;;;;;;;38.80;23.30;;;;;;;8.91;89.37;100252.63;105460;1255;73765;-67
2023/03/22 01:39:46;;;;;;;32.70;21.40;;;;;;;8.92;89.33;100250.86;105449;1257;69132;-70
2023/03/22 01:42:48;;;;;;;31.40;20.90;;;;;;;8.89;89.21;100259.48;105426;1253;69294;-71
2023/03/22 01:45:49;;;;;;;32.20;21.10;;;;;;;8.84;89.30;100256.69;105461;1253;73996;-68
2023/03/22 01:48:52;;;;;;;29.70;20.30;;;;;;;8.82;89.34;100257.13;105473;1253;83711;-71
2023/03/22 01:51:48;;;;;;;29.20;20.00;;;;;;;8.80;89.58;100255.79;105453;1253;72877;-69
2023/03/22 01:54:56;;;;;;;30.80;20.40;;;;;;;8.78;89.66;100250.29;105403;1253;69144;-68
2023/03/22 01:58:16;;;;;;;28.90;19.60;;;;;;;8.75;89.90;100248.63;104898;1260;69301;-68
2023/03/22 02:01:30;;;;;;;33.50;22.00;;;;;;;8.74;90.39;100254.95;104822;1261;74222;-68
2023/03/22 02:04:22;;;;;;;32.20;22.40;;;;;;;8.74;90.30;100255.11;104774;1267;83387;-68
2023/03/22 02:07:26;;;;;;;28.70;21.00;;;;;;;8.73;90.33;100259.66;104726;1262;73659;-68
2023/03/22 02:10:26;;;;;;;31.10;20.70;;;;;;;8.73;90.28;100256.88;104975;1262;69359;-67
2023/03/22 02:13:38;;;;;;;30.50;21.60;;;;;;;8.72;90.35;100257.42;104787;1267;69301;-67
2023/03/22 02:17:02;;;;;;;32.80;19.40;;;;;;;8.72;90.51;100255.69;104464;1268;73014;-68
2023/03/22 02:20:13;;;;;;;29.50;20.40;;;;;;;8.72;90.66;100257.41;103993;1271;82502;-69
2023/03/22 02:23:30;;;;;;;28.50;19.70;;;;;;;8.72;90.49;100257.59;103367;1280;73867;-70
2023/03/22 02:27:19;;;;;;;32.90;19.70;;;;;;;8.73;90.82;100256.19;102892;1286;69305;-74
2023/03/22 02:30:49;;;;;;;30.20;20.30;;;;;;;8.74;91.01;100259.63;102342;1297;69166;-70
2023/03/22 02:37:41;;;;;;;;;;;;;;;;;;;;;
2023/03/22 02:41:08;;;;;;;52.50;28.30;;;;;;;8.60;91.39;100261.80;101591;1314;73039;-76
2023/03/22 02:44:18;;;;;;;54.40;27.10;;;;;;;8.59;91.35;100263.77;101031;1307;69170;-71
2023/03/22 02:48:36;;;;;;;32.40;21.80;;;;;;;8.59;91.69;100261.16;101689;1299;602842;-72
2023/03/22 02:52:19;;;;;;;;;;;;;;;;;;;;;
2023/03/22 02:56:04;;;;;;;39.00;23.40;;;;;;;8.58;91.92;100257.01;102353;1289;69384;-68
2023/03/22 03:00:17;;;;;;;;;;;;;;;;;;;;;
2023/03/22 03:07:39;;;;;;;;;;;;;;;;;;;;;
2023/03/22 03:15:04;;;;;;;;;;;;;;;;;;;;;
2023/03/22 03:19:15;;;;;;;42.80;26.30;;;;;;;8.53;92.96;100260.65;101435;1318;72638;-77
2023/03/22 03:22:24;;;;;;;43.10;23.60;;;;;;;8.53;93.30;100262.55;100541;1317;84862;-79
2023/03/22 03:26:40;;;;;;;38.30;23.00;;;;;;;8.57;93.31;100267.84;102245;1295;600141;-78
2023/03/22 03:34:22;;;;;;;30.30;19.90;;;;;;;8.52;93.48;100259.78;103394;1286;69292;-72
2023/03/22 03:38:17;;;;;;;32.80;21.20;;;;;;;8.51;93.76;100255.11;103285;1282;72640;-72
2023/03/22 03:42:03;;;;;;;30.10;21.00;;;;;;;8.47;93.77;100250.54;101207;1278;82187;-76
2023/03/22 03:45:45;;;;;;;29.70;20.80;;;;;;;8.43;93.94;100248.56;103492;1279;73805;-74
2023/03/22 03:49:29;;;;;;;33.00;22.00;;;;;;;8.40;94.26;100250.05;103263;1278;69313;-74
2023/03/22 03:53:20;;;;;;;35.30;23.10;;;;;;;8.41;94.45;100247.07;103448;1279;69322;-76
2023/03/22 03:57:01;;;;;;;33.70;21.80;;;;;;;8.42;94.25;100240.94;103251;1283;71919;-74
2023/03/22 04:00:54;;;;;;;29.60;20.20;;;;;;;8.40;94.36;100246.42;103367;1278;83336;-77
2023/03/22 04:08:52;;;;;;;51.10;26.90;;;;;;;8.45;95.05;100240.84;102955;1286;69589;-73
2023/03/22 04:12:20;;;;;;;56.60;28.80;;;;;;;8.47;94.99;100238.52;104259;1269;69634;-72
2023/03/22 04:20:18;;;;;;;29.80;20.70;;;;;;;8.46;94.97;100230.89;103547;1277;83152;-70
2023/03/22 04:24:06;;;;;;;30.40;20.80;;;;;;;8.40;95.07;100233.52;104473;1269;73919;-68
2023/03/22 04:27:54;;;;;;;;;;;;;;;;;;;;;
2023/03/22 04:31:42;;;;;;;32.40;21.20;;;;;;;8.31;95.00;100232.19;104250;1264;69195;-70
2023/03/22 04:35:38;;;;;;;;;;;;;;;;;;;;;
2023/03/22 04:39:23;;;;;;;30.10;20.60;;;;;;;8.28;95.36;100231.41;104390;1265;82936;-72
2023/03/22 04:43:15;;;;;;;;;;;;;;;;;;;;;
2023/03/22 04:47:03;;;;;;;;;;;;;;;;;;;;;
2023/03/22 04:50:55;;;;;;;29.30;20.00;;;;;;;8.34;95.90;100232.64;104977;1260;69194;-70
2023/03/22 04:54:44;;;;;;;32.20;20.10;;;;;;;8.32;95.89;100226.95;105047;1256;73002;-67
2023/03/22 04:58:29;;;;;;;32.20;22.20;;;;;;;8.28;95.94;100224.62;105045;1260;82327;-69
2023/03/22 05:02:02;;;;;;;35.50;24.00;;;;;;;8.23;95.91;100219.53;105093;1261;73946;-68
2023/03/22 05:05:52;;;;;;;32.20;22.70;;;;;;;8.19;95.87;100220.36;105121;1260;70943;-67
2023/03/22 05:09:31;;;;;;;30.70;20.10;;;;;;;8.16;95.52;100227.59;104982;1256;69119;-71
2023/03/22 05:13:15;;;;;;;30.70;20.40;;;;;;;8.12;95.56;100227.38;104951;1256;73350;-71
2023/03/22 05:16:57;;;;;;;;;;;;;;;;;;;;;
2023/03/22 05:20:47;;;;;;;29.20;19.20;;;;;;;8.04;95.53;100222.90;105344;1254;73572;-71
2023/03/22 05:24:37;;;;;;;29.60;20.50;;;;;;;7.99;95.39;100223.20;105437;1254;69632;-68
2023/03/22 05:28:17;;;;;;;;;;;;;;;;;;;;;
2023/03/22 05:31:43;;;;;;;28.50;21.60;;;;;;;7.91;96.02;100223.97;104297;1270;72483;-65
2023/03/22 05:35:04;;;;;;;;;;;;;;;;;;;;;
2023/03/22 05:38:23;;;;;;;32.10;20.80;;;;;;;7.98;96.46;100230.91;104433;1270;75900;-65
2023/03/22 05:41:22;;;;;;;32.80;21.90;;;;;;;8.07;96.61;100238.30;104467;1267;69333;-67
2023/03/22 05:44:46;;;;;;;34.20;23.10;;;;;;;8.16;97.10;100235.78;104489;1267;69219;-70
2023/03/22 05:48:12;;;;;;;36.30;23.60;;;;;;;8.29;97.46;100238.70;104593;1267;72484;-61
2023/03/22 05:51:40;;;;;;;32.30;23.50;;;;;;;8.46;97.80;100238.38;104509;1267;82475;-71
2023/03/22 05:54:51;;;;;;;31.10;21.70;;;;;;;8.61;97.81;100238.45;104478;1267;73905;-73
2023/03/22 05:58:09;;;;;;;35.10;23.50;;;;;;;8.74;97.86;100242.21;104463;1267;69463;-71
2023/03/22 06:01:32;;;;;;;33.30;22.50;;;;;;;8.86;97.53;100246.02;104717;1267;69526;-72
2023/03/22 06:04:49;;;;;;;28.60;21.70;;;;;;;8.96;97.40;100242.89;104581;1269;72308;-72
2023/03/22 06:07:46;;;;;;;31.30;23.10;;;;;;;9.05;97.26;100240.34;104600;1260;83296;-73
2023/03/22 06:10:49;;;;;;;32.10;23.20;;;;;;;9.13;97.19;100239.55;105683;1255;73375;-73
2023/03/22 06:14:01;;;;;;;;;;;;;;;;;;;;;
2023/03/22 06:17:10;;;;;;;35.30;24.20;;;;;;;9.21;96.96;100242.08;105550;1251;69086;-72
2023/03/22 06:20:18;;;;;;;36.40;26.50;;;;;;;9.22;97.08;100244.98;105712;1255;73244;-72
2023/03/22 06:23:28;;;;;;;35.60;25.80;;;;;;;9.21;97.06;100243.09;105897;1256;83572;-73
2023/03/22 06:26:22;;;;;;;32.20;23.80;;;;;;;9.20;96.70;100243.15;105635;1254;74026;-73
2023/03/22 06:29:49;;;;;;;28.60;21.80;;;;;;;9.19;96.54;100246.50;105480;1253;69157;-72
2023/03/22 06:33:12;;;;;;;33.40;23.30;;;;;;;9.15;96.58;100243.98;105660;1257;69190;-71
2023/03/22 06:36:25;;;;;;;30.80;22.30;;;;;;;9.15;96.43;100243.64;105512;1253;73254;-72
2023/03/22 06:39:59;;;;;;;27.40;21.50;;;;;;;9.16;96.76;100241.70;105551;1256;84801;-74
2023/03/22 06:43:11;;;;;;;32.50;22.30;;;;;;;9.21;96.89;100247.83;105376;1253;73366;-73
2023/03/22 06:46:32;;;;;;;31.70;22.70;;;;;;;9.24;97.00;100245.80;105336;1252;69926;-72
2023/03/22 06:49:35;;;;;;;28.90;21.30;;;;;;;9.27;97.04;100250.39;105542;1254;69212;-72
2023/03/22 06:52:56;;;;;;;32.00;23.30;;;;;;;9.32;97.24;100250.40;105279;1253;72403;-72
2023/03/22 06:56:01;;;;;;;28.40;21.40;;;;;;;9.37;97.46;100243.60;105504;1257;83360;-70
2023/03/22 06:59:12;;;;;;;32.90;23.50;;;;;;;9.43;97.47;100246.73;105508;1257;72765;-72
2023/03/22 07:02:08;;;;;;;34.60;24.60;;;;;;;9.47;97.47;100247.96;105527;1254;69136;-73
2023/03/22 07:05:30;;;;;;;35.60;24.60;;;;;;;9.51;97.43;100246.94;105457;1253;69106;-73
2023/03/22 07:08:37;;;;;;;34.40;23.00;;;;;;;9.58;97.16;100250.17;105603;1254;73879;-72
2023/03/22 07:11:46;;;;;;;33.30;23.50;;;;;;;9.67;97.21;100249.90;105565;1254;83638;-71
2023/03/22 07:14:56;;;;;;;30.50;22.60;;;;;;;9.76;97.09;100248.31;105525;1256;73760;-74
2023/03/22 07:18:31;;;;;;;30.30;22.70;;;;;;;9.85;97.04;100248.00;105368;1254;69100;-71
2023/03/22 07:21:32;;;;;;;33.10;23.40;;;;;;;9.94;96.84;100238.42;105502;1254;69167;-71
2023/03/22 07:25:05;;;;;;;36.80;24.50;;;;;;;10.02;96.82;100236.20;105708;1253;72990;-71
2023/03/22 07:28:01;;;;;;;33.60;26.60;;;;;;;10.14;97.02;100239.95;105714;1256;83715;-72
2023/03/22 07:31:04;;;;;;;;;;;;;;;;;;;;;
2023/03/22 07:34:28;;;;;;;31.50;23.40;;;;;;;10.40;96.73;100238.47;105272;1253;69228;-73
2023/03/22 07:37:39;;;;;;;30.40;23.60;;;;;;;10.55;96.92;100240.83;105679;1251;69013;-72
2023/03/22 07:40:53;;;;;;;34.10;23.20;;;;;;;10.67;96.44;100233.54;105620;1255;73157;-72
2023/03/22 07:43:57;;;;;;;29.60;23.00;;;;;;;10.79;96.24;100236.05;105583;1258;83267;-71
2023/03/22 07:47:12;;;;;;;26.40;21.00;;;;;;;10.89;96.07;100233.02;105660;1256;73628;-70
2023/03/22 07:50:17;;;;;;;30.50;22.80;;;;;;;10.97;95.63;100235.48;105569;1251;69209;-70
2023/03/22 07:53:21;;;;;;;32.50;23.90;;;;;;;11.06;95.76;100236.51;105905;1253;69158;-72
2023/03/22 07:56:10;;;;;;;29.90;24.70;;;;;;;11.16;95.92;100239.04;105761;1253;73140;-70
2023/03/22 07:59:04;;;;;;;32.70;25.50;;;;;;;11.19;95.22;100238.23;105672;1253;82698;-71
2023/03/22 08:01:57;;;;;;;34.00;23.40;;;;;;;11.24;95.16;100236.80;105439;1253;73914;-72
2023/03/22 08:04:51;;;;;;;27.10;22.10;;;;;;;11.32;94.93;100229.63;105637;1256;69196;-70
2023/03/22 08:07:56;;;;;;;27.30;21.10;;;;;;;11.40;94.62;100228.09;105636;1254;69078;-73
2023/03/22 08:10:49;;;;;;;27.60;21.80;;;;;;;11.47;94.77;100226.36;105461;1257;73273;-71
2023/03/22 08:13:41;;;;;;;26.50;20.20;;;;;;;11.59;94.65;100229.67;105757;1255;83254;-71
2023/03/22 08:16:25;;;;;;;29.70;22.20;;;;;;;11.69;94.37;100223.13;105686;1251;73875;-72
2023/03/22 08:19:03;;;;;;;28.80;23.10;;;;;;;11.73;94.02;100221.03;105963;1253;69142;-72
2023/03/22 08:22:10;;;;;;;;;;;;;;;;;;;;;
2023/03/22 08:25:14;;;;;;;28.10;22.70;;;;;;;11.90;93.71;100219.06;105679;1256;73378;-72
2023/03/22 08:27:56;;;;;;;26.60;20.30;;;;;;;11.91;93.36;100216.20;105809;1256;83238;-72
2023/03/22 08:30:34;;;;;;;24.10;18.50;;;;;;;11.99;93.17;100221.83;105566;1258;73757;-70
2023/03/22 08:33:22;;;;;;;26.40;19.00;;;;;;;12.08;93.22;100220.17;105593;1253;69095;-72
2023/03/22 08:36:21;;;;;;;23.40;18.20;;;;;;;12.15;92.95;100221.59;105602;1252;69238;-73
2023/03/22 08:39:18;;;;;;;23.50;19.20;;;;;;;12.24;92.82;100219.61;105580;1255;73582;-70
2023/03/22 08:42:07;;;;;;;26.50;20.50;;;;;;;12.35;92.93;100213.33;105628;1256;83296;-70
2023/03/22 08:44:46;;;;;;;25.90;20.40;;;;;;;12.47;92.86;100211.33;105402;1255;73741;-69
2023/03/22 08:47:22;;;;;;;25.90;19.70;;;;;;;12.55;92.06;100214.81;105769;1256;69196;-68
2023/03/22 08:50:22;;;;;;;24.20;18.10;;;;;;;12.61;91.77;100211.17;105517;1255;69167;-68
2023/03/22 08:53:16;;;;;;;23.20;17.60;;;;;;;12.74;91.51;100211.59;105715;1253;73228;-70
2023/03/22 08:56:03;;;;;;;14.80;12.50;;;;;;;12.87;91.34;100208.86;105500;1251;82713;-70
2023/03/22 08:59:06;;;;;;;10.70;7.90;;;;;;;12.93;89.84;100201.87;105614;1256;74193;-77
2023/03/22 09:01:55;;;;;;;11.50;8.70;;;;;;;12.92;89.01;100199.14;105508;1253;69174;-69
2023/03/22 09:04:48;;;;;;;10.80;8.20;;;;;;;12.87;87.94;100203.45;105591;1255;69198;-67
2023/03/22 09:07:30;;;;;;;10.70;8.30;;;;;;;12.87;87.55;100197.99;105557;1255;74384;-65
2023/03/22 09:10:22;;;;;;;9.60;8.30;;;;;;;12.90;87.06;100193.98;105624;1256;83452;-67
2023/03/22 09:13:07;;;;;;;12.50;7.90;;;;;;;12.96;86.53;100193.66;105636;1253;73531;-66
2023/03/22 09:15:45;;;;;;;11.30;8.00;;;;;;;13.03;85.99;100191.77;105531;1253;69174;-68
2023/03/22 09:18:21;;;;;;;11.20;8.00;;;;;;;13.17;86.10;100197.38;105595;1253;69266;-71
2023/03/22 09:21:04;;;;;;;9.50;8.40;;;;;;;13.28;85.09;100196.11;105573;1257;73164;-70
2023/03/22 09:23:46;;;;;;;11.40;8.20;;;;;;;13.42;84.81;100194.39;105741;1255;83201;-69
2023/03/22 09:26:23;;;;;;;12.30;8.80;;;;;;;13.53;84.13;100187.77;105716;1253;73745;-72
2023/03/22 09:28:58;;;;;;;11.00;8.30;;;;;;;13.62;83.73;100183.98;105560;1253;69132;-71
2023/03/22 09:31:33;;;;;;;12.00;8.80;;;;;;;13.70;83.10;100184.81;105596;1253;69158;-66
2023/03/22 09:34:16;;;;;;;9.90;8.40;;;;;;;13.75;81.77;100186.48;105718;1253;72802;-61
2023/03/22 09:36:57;;;;;;;11.60;8.60;;;;;;;13.83;81.63;100185.17;105543;1254;83345;-60
2023/03/22 09:39:32;;;;;;;11.00;8.50;;;;;;;13.97;80.99;100183.73;105648;1256;73149;-58
2023/03/22 09:42:17;;;;;;;11.50;8.60;;;;;;;14.13;80.75;100184.55;105678;1252;69076;-58
2023/03/22 09:44:53;;;;;;;10.40;8.70;;;;;;;14.39;80.14;100182.79;105645;1256;69070;-58
2023/03/22 09:47:31;;;;;;;8.70;7.70;;;;;;;14.49;79.42;100169.36;105790;1253;73877;-59
2023/03/22 09:50:19;;;;;;;10.70;8.80;;;;;;;14.60;78.61;100179.32;105619;1251;83156;-59
2023/03/22 09:52:52;;;;;;;10.40;8.60;;;;;;;14.63;78.03;100167.55;105803;1256;74067;-59
2023/03/22 09:55:29;;;;;;;9.40;7.80;;;;;;;14.78;78.24;100165.80;105639;1255;69154;-59
2023/03/22 09:58:07;;;;;;;9.60;8.40;;;;;;;15.06;78.60;100158.17;105596;1253;69205;-58
2023/03/22 10:00:43;;;;;;;9.90;7.70;;;;;;;15.29;78.07;100155.36;105547;1253;74226;-58
2023/03/22 10:03:17;;;;;;;10.50;7.90;;;;;;;15.46;77.26;100158.58;105623;1253;83493;-58
2023/03/22 10:06:09;;;;;;;9.40;7.10;;;;;;;15.53;76.21;100148.84;105632;1256;73197;-58
2023/03/22 10:09:14;;;;;;;10.20;7.70;;;;;;;15.72;76.44;100152.77;105743;1256;69196;-59
2023/03/22 10:11:53;;;;;;;9.50;7.70;;;;;;;15.80;74.80;100148.23;105778;1253;69113;-59
2023/03/22 10:14:41;;;;;;;8.40;6.80;;;;;;;15.85;74.54;100153.23;105709;1253;74123;-58
2023/03/22 10:17:12;;;;;;;9.40;8.00;;;;;;;15.86;73.16;100155.64;105660;1256;83622;-64
2023/03/22 10:19:52;;;;;;;9.10;7.40;;;;;;;15.75;72.29;100152.95;105728;1255;73795;-59
2023/03/22 10:22:28;;;;;;;8.80;7.50;;;;;;;15.72;72.07;100154.23;105512;1257;69222;-60
2023/03/22 10:25:07;;;;;;;9.90;8.20;;;;;;;15.74;72.41;100152.12;105672;1253;69197;-59
2023/03/22 10:27:46;;;;;;;12.30;8.20;;;;;;;15.77;72.37;100153.54;105617;1253;74328;-60
2023/03/22 10:30:23;;;;;;;10.40;7.70;;;;;;;15.92;72.43;100150.52;105653;1253;82876;-62
2023/03/22 10:33:15;;;;;;;9.10;8.00;;;;;;;16.06;72.24;100150.84;105742;1253;73765;-60
2023/03/22 10:35:50;;;;;;;23.10;13.70;;;;;;;16.18;72.06;100141.57;105618;1253;69191;-61
2023/03/22 10:38:33;;;;;;;10.40;8.50;;;;;;;16.37;72.24;100135.81;105528;1251;69178;-59
2023/03/22 10:41:11;;;;;;;10.00;8.20;;;;;;;16.52;71.93;100131.13;105672;1256;73043;-60
2023/03/22 10:43:43;;;;;;;9.80;8.30;;;;;;;16.71;71.92;100129.31;105590;1251;83770;-61
2023/03/22 10:46:17;;;;;;;8.40;7.50;;;;;;;16.85;71.33;100127.17;105638;1253;73775;-61
2023/03/22 10:48:49;;;;;;;9.80;7.90;;;;;;;16.86;70.59;100122.67;105499;1252;69054;-61
2023/03/22 10:51:28;;;;;;;10.50;7.00;;;;;;;17.00;70.37;100117.69;105630;1256;69203;-59
2023/03/22 10:54:00;;;;;;;7.90;7.10;;;;;;;17.37;70.19;100115.29;105577;1254;74184;-63
2023/03/22 10:56:31;;;;;;;8.70;7.70;;;;;;;17.53;69.61;100115.61;105640;1253;83363;-61
2023/03/22 10:59:02;;;;;;;10.50;7.50;;;;;;;17.59;68.69;100113.90;105599;1253;73938;-61
2023/03/22 11:01:35;;;;;;;9.10;7.60;;;;;;;17.53;67.94;100110.30;105657;1252;69320;-61
2023/03/22 11:04:15;;;;;;;11.30;8.40;;;;;;;17.47;67.31;100108.41;105667;1253;69192;-63
2023/03/22 11:06:52;;;;;;;8.70;7.50;;;;;;;17.47;65.94;100101.50;105673;1255;73120;-64
2023/03/22 11:09:24;;;;;;;11.00;8.00;;;;;;;17.49;66.46;100095.91;105658;1256;83415;-62
2023/03/22 11:11:58;;;;;;;8.80;7.50;;;;;;;17.53;66.17;100101.98;105640;1253;73801;-64
2023/03/22 11:14:28;;;;;;;9.10;7.60;;;;;;;17.39;65.08;100095.92;105555;1257;69253;-61
2023/03/22 11:17:00;;;;;;;9.00;7.10;;;;;;;17.24;65.24;100092.41;105662;1253;69190;-62
2023/03/22 11:19:34;;;;;;;8.70;7.20;;;;;;;17.16;64.83;100094.29;105524;1259;73054;-62
2023/03/22 11:22:19;;;;;;;7.30;6.60;;;;;;;17.00;64.79;100091.39;105530;1257;83522;-62
2023/03/22 11:24:51;;;;;;;8.50;7.20;;;;;;;16.91;64.69;100086.00;105632;1253;72767;-59
2023/03/22 11:27:31;;;;;;;9.40;7.00;;;;;;;16.88;64.84;100078.77;105696;1256;69190;-61
2023/03/22 11:30:24;;;;;;;8.30;6.10;;;;;;;16.89;64.94;100078.69;105662;1251;69062;-60
2023/03/22 11:33:17;;;;;;;6.70;5.60;;;;;;;16.89;64.49;100078.02;105683;1253;74772;-62
2023/03/22 11:35:53;;;;;;;5.90;5.30;;;;;;;16.94;64.49;100075.02;105666;1253;83289;-62
2023/03/22 11:38:44;;;;;;;8.60;5.90;;;;;;;17.05;64.61;100074.59;105655;1253;72057;-59
2023/03/22 11:41:25;;;;;;;6.30;5.20;;;;;;;17.17;64.09;100070.75;105640;1253;69196;-61
2023/03/22 11:44:23;;;;;;;5.70;4.90;;;;;;;17.28;63.70;100071.59;105646;1256;69201;-59
2023/03/22 11:46:59;;;;;;;6.80;5.40;;;;;;;17.37;62.96;100075.92;105469;1256;73800;-60
2023/03/22 11:49:38;;;;;;;6.70;4.80;;;;;;;17.36;62.33;100071.00;105569;1259;83277;-60
2023/03/22 11:52:10;;;;;;;5.50;4.40;;;;;;;17.38;61.86;100065.59;105636;1256;73779;-60
2023/03/22 11:54:41;;;;;;;5.90;4.60;;;;;;;17.38;61.48;100064.14;105663;1256;69202;-61
2023/03/22 11:57:17;;;;;;;5.90;4.40;;;;;;;17.44;61.44;100059.91;105517;1256;69176;-60
2023/03/22 11:59:54;;;;;;;6.40;4.40;;;;;;;17.49;61.22;100053.66;105506;1257;73126;-59
2023/03/22 12:02:31;;;;;;;5.70;3.90;;;;;;;17.52;60.13;100061.03;105629;1256;82972;-59
2023/03/22 12:05:30;;;;;;;4.60;3.70;;;;;;;17.47;59.46;100058.45;105523;1259;72649;-60
2023/03/22 12:08:14;;;;;;;5.60;4.00;;;;;;;17.42;59.24;100048.54;105557;1251;69056;-59
2023/03/22 12:10:47;;;;;;;4.00;3.20;;;;;;;17.47;59.54;100046.94;105634;1252;69081;-60
2023/03/22 12:13:20;;;;;;;5.40;3.80;;;;;;;17.74;59.72;100042.73;105628;1251;72404;-60
2023/03/22 12:15:55;;;;;;;4.60;3.40;;;;;;;18.02;59.13;100035.17;105630;1256;83384;-60
2023/03/22 12:18:46;;;;;;;3.50;2.90;;;;;;;18.23;58.63;100027.64;105592;1253;73868;-61
2023/03/22 12:21:15;;;;;;;6.20;3.20;;;;;;;18.52;59.08;100029.00;105612;1254;69181;-60
2023/03/22 12:23:44;;;;;;;7.70;3.10;;;;;;;18.67;58.74;100027.12;105631;1251;69628;-62
2023/03/22 12:26:18;;;;;;;5.20;3.00;;;;;;;18.58;57.74;100027.98;105652;1253;73140;-59
2023/03/22 12:28:55;;;;;;;4.50;2.60;;;;;;;18.43;56.77;100025.64;105683;1256;82420;-63
2023/03/22 12:31:29;;;;;;;4.70;2.30;;;;;;;18.25;56.49;100027.30;105479;1258;73692;-61
2023/03/22 12:34:05;;;;;;;4.20;2.30;;;;;;;18.11;56.18;100026.98;105619;1254;69081;-61
2023/03/22 12:37:02;;;;;;;5.30;2.20;;;;;;;18.14;56.76;100025.67;105670;1255;69399;-61
2023/03/22 12:39:37;;;;;;;1.80;1.30;;;;;;;18.55;56.67;100020.27;105523;1256;73106;-60
2023/03/22 12:42:23;;;;;;;1.80;1.10;;;;;;;18.80;55.87;100024.25;105682;1256;83497;-62
2023/03/22 12:44:57;;;;;;;3.50;1.40;;;;;;;18.87;55.12;100021.39;105665;1253;74116;-62
2023/03/22 12:47:42;;;;;;;2.70;1.60;;;;;;;18.99;54.81;100021.89;105636;1251;69186;-61
2023/03/22 12:50:18;;;;;;;3.20;1.40;;;;;;;19.11;54.58;100018.63;105551;1251;69098;-60
2023/03/22 12:52:48;;;;;;;2.60;1.30;;;;;;;19.49;54.56;100005.32;105666;1255;74352;-60
2023/03/22 12:55:22;;;;;;;2.20;1.30;;;;;;;19.90;54.04;100003.80;105653;1256;83401;-59
2023/03/22 12:57:51;;;;;;;3.10;1.60;;;;;;;20.31;54.15;99998.41;105619;1256;72875;-60
2023/03/22 13:00:28;;;;;;;1.80;1.30;;;;;;;20.76;53.76;99996.21;105526;1253;69078;-59
2023/03/22 13:03:28;;;;;;;2.70;1.60;;;;;;;21.17;53.23;99987.34;105667;1251;69210;-59
2023/03/22 13:06:01;;;;;;;;;;;;;;;21.53;52.50;99987.16;105662;1255;73184;-60
2023/03/22 13:09:03;;;;;;;1.90;1.20;;;;;;;21.70;52.09;99982.86;105497;1253;83029;-60
2023/03/22 13:11:31;;;;;;;2.20;1.50;;;;;;;21.68;51.11;99985.67;105525;1253;73380;-60
2023/03/22 13:14:00;;;;;;;1.90;1.30;;;;;;;21.37;50.22;99981.35;105618;1256;69183;-60
2023/03/22 13:16:51;;;;;;;2.80;1.50;;;;;;;21.00;49.89;99991.31;105506;1252;69135;-63
2023/03/22 13:19:35;;;;;;;2.90;1.70;;;;;;;20.45;48.51;99991.77;105656;1252;74086;-60
2023/03/22 13:22:25;;;;;;;2.30;1.80;;;;;;;19.87;48.61;99982.72;105628;1256;82941;-61
2023/03/22 13:25:13;;;;;;;1.30;1.20;;;;;;;19.67;49.44;99977.48;105633;1256;74073;-63
2023/03/22 13:27:44;;;;;;;3.30;1.40;;;;;;;19.67;50.19;99975.91;105659;1256;69189;-59
2023/03/22 13:30:24;;;;;;;3.70;1.90;;;;;;;19.63;50.31;99972.09;105635;1254;69122;-63
2023/03/22 13:32:56;;;;;;;2.10;1.60;;;;;;;19.46;49.49;99974.69;105680;1253;73270;-59
2023/03/22 13:35:32;;;;;;;2.90;1.70;;;;;;;19.55;49.62;99969.93;105656;1256;83533;-60
2023/03/22 13:38:06;;;;;;;2.80;1.90;;;;;;;19.80;49.29;99969.00;105679;1256;73604;-64
2023/03/22 13:40:38;;;;;;;2.70;2.00;;;;;;;19.76;48.93;99965.20;105670;1255;69138;-64
2023/03/22 13:43:31;;;;;;;2.00;1.50;;;;;;;19.59;48.90;99955.79;105664;1256;69237;-61
2023/03/22 13:46:08;;;;;;;4.80;2.30;;;;;;;19.42;49.05;99952.40;105599;1254;74089;-61
2023/03/22 13:48:46;;;;;;;4.70;2.20;;;;;;;19.41;49.39;99947.81;105674;1257;83318;-62
2023/03/22 13:51:28;;;;;;;3.40;2.10;;;;;;;19.64;49.32;99943.36;105646;1251;73640;-60
2023/03/22 13:54:03;;;;;;;5.20;2.30;;;;;;;19.63;48.86;99941.14;105642;1256;69195;-61
2023/03/22 13:56:32;;;;;;;3.30;2.60;;;;;;;19.53;48.93;99935.58;105638;1255;69110;-59
2023/03/22 13:59:04;;;;;;;2.80;2.10;;;;;;;19.48;48.88;99938.05;105684;1253;73891;-62
2023/03/22 14:01:35;;;;;;;2.90;2.00;;;;;;;19.52;49.06;99936.65;105613;1256;83521;-62
2023/03/22 14:04:11;;;;;;;4.70;1.90;;;;;;;19.52;49.09;99936.66;105658;1257;73734;-59
2023/03/22 14:06:56;;;;;;;2.30;1.60;;;;;;;19.49;49.18;99929.84;105663;1256;69173;-63
2023/03/22 14:09:31;;;;;;;4.40;1.70;;;;;;;19.47;49.13;99927.52;105640;1251;69189;-63
2023/03/22 14:12:10;;;;;;;2.30;1.50;;;;;;;19.60;49.25;99924.12;105605;1253;74110;-61
2023/03/22 14:14:46;;;;;;;2.60;1.80;;;;;;;19.93;49.19;99923.90;105526;1256;82503;-60
2023/03/22 14:17:21;;;;;;;2.30;1.60;;;;;;;20.06;48.87;99918.02;105616;1254;73820;-60
2023/03/22 14:19:50;;;;;;;2.90;2.30;;;;;;;20.11;48.82;99912.80;105470;1257;69128;-63
2023/03/22 14:22:41;;;;;;;3.60;2.20;;;;;;;20.20;48.47;99917.94;105541;1259;69662;-60
2023/03/22 14:25:10;;;;;;;3.40;2.10;;;;;;;20.05;48.26;99914.40;105655;1256;73115;-63